Time;durP1;ratioP1;P1;durP2;ratioP2;P2;SDS_P1;SDS_P2;PMS_P1;PMS_P2;Temp;Humidity;BMP_temperature;BMP_pressure;BME280_temperature;BME280_humidity;BME280_pressure;Samples;Min_cycle;Max_cycle;Signal;HPM_P1;HPM_P2
2022/07/25 00:01:11;;;;;;;10.20;8.43;;;23.10;99.90;;;;;;5047009;28;20545;-73
2022/07/25 00:03:40;;;;;;;10.03;9.03;;;23.10;99.90;;;;;;5051412;28;20540;-74
2022/07/25 00:06:08;;;;;;;9.93;9.00;;;23.20;99.90;;;;;;5053511;28;20446;-73
2022/07/25 00:08:35;;;;;;;9.60;8.70;;;23.20;99.90;;;;;;5043681;28;20478;-74
2022/07/25 00:11:02;;;;;;;14.30;9.87;;;23.20;99.90;;;;;;5039184;28;20933;-73
2022/07/25 00:13:29;;;;;;;12.73;10.20;;;23.10;99.90;;;;;;5044992;28;20585;-73
2022/07/25 00:15:56;;;;;;;12.87;10.50;;;23.10;99.90;;;;;;5048669;28;20452;-73
2022/07/25 00:18:23;;;;;;;11.40;9.13;;;23.10;99.90;;;;;;5045970;28;20517;-74
2022/07/25 00:20:52;;;;;;;10.80;9.70;;;23.10;99.90;;;;;;5045548;28;20601;-74
2022/07/25 00:23:18;;;;;;;11.53;9.93;;;23.00;99.90;;;;;;5048077;28;20497;-74
2022/07/25 00:25:45;;;;;;;9.00;8.10;;;23.10;99.90;;;;;;5045771;28;20442;-74
2022/07/25 00:28:12;;;;;;;14.47;9.07;;;23.00;99.90;;;;;;5049375;28;20887;-74
2022/07/25 00:30:39;;;;;;;9.93;8.93;;;23.00;99.90;;;;;;5047532;28;20874;-76
2022/07/25 00:33:06;;;;;;;9.17;8.10;;;23.00;99.90;;;;;;5033305;28;20906;-73
2022/07/25 00:35:34;;;;;;;10.03;9.03;;;22.90;99.90;;;;;;5049362;28;20525;-74
2022/07/25 00:38:02;;;;;;;9.53;8.53;;;22.90;99.90;;;;;;5039760;28;20447;-73
2022/07/25 00:40:29;;;;;;;14.03;10.07;;;22.80;99.90;;;;;;5047609;28;20871;-74
2022/07/25 00:42:56;;;;;;;11.10;9.97;;;22.80;99.90;;;;;;5044477;28;20489;-74
2022/07/25 00:45:23;;;;;;;10.10;9.10;;;22.70;99.90;;;;;;5046352;28;20462;-75
2022/07/25 00:47:50;;;;;;;10.50;8.80;;;22.70;99.90;;;;;;5044607;28;20446;-73
2022/07/25 00:50:17;;;;;;;9.40;8.43;;;22.70;99.90;;;;;;5044175;28;20831;-73
2022/07/25 00:52:45;;;;;;;9.30;8.37;;;22.70;99.90;;;;;;5040822;28;20554;-73
2022/07/25 00:55:13;;;;;;;9.93;8.30;;;22.70;99.90;;;;;;5048853;28;20528;-75
2022/07/25 00:57:40;;;;;;;9.53;8.60;;;22.70;99.90;;;;;;5042521;28;20529;-74
2022/07/25 01:00:11;;;;;;;10.23;7.80;;;22.70;99.90;;;;;;5049643;28;20499;-74
2022/07/25 01:02:38;;;;;;;9.63;8.67;;;22.70;99.90;;;;;;5050163;28;20521;-75
2022/07/25 01:05:06;;;;;;;10.90;8.33;;;22.60;99.90;;;;;;5052865;28;20477;-75
2022/07/25 01:07:33;;;;;;;9.77;7.90;;;22.60;99.90;;;;;;5050329;28;20513;-75
2022/07/25 01:10:02;;;;;;;9.70;8.37;;;22.50;99.90;;;;;;5055145;28;20563;-75
2022/07/25 01:12:30;;;;;;;11.10;8.47;;;22.50;99.90;;;;;;5056589;28;20485;-73
2022/07/25 01:14:58;;;;;;;10.07;9.13;;;22.50;99.90;;;;;;5052899;28;20529;-73
2022/07/25 01:17:25;;;;;;;10.37;8.80;;;22.50;99.90;;;;;;5053398;28;20533;-74
2022/07/25 01:19:52;;;;;;;12.93;9.50;;;22.40;99.90;;;;;;5048608;28;20452;-72
2022/07/25 01:22:21;;;;;;;10.07;9.10;;;22.40;99.90;;;;;;5053416;28;20485;-74
2022/07/25 01:24:47;;;;;;;10.80;9.83;;;22.40;99.90;;;;;;5051849;28;20560;-75
2022/07/25 01:27:14;;;;;;;10.57;8.70;;;22.40;99.90;;;;;;5051898;28;20438;-74
2022/07/25 01:29:41;;;;;;;9.70;8.80;;;22.30;99.90;;;;;;5040457;28;20544;-75
2022/07/25 01:32:08;;;;;;;9.93;8.93;;;22.30;99.90;;;;;;5047727;28;21004;-74
2022/07/25 01:34:35;;;;;;;9.97;9.07;;;22.20;99.90;;;;;;5052929;28;20471;-74
2022/07/25 01:37:02;;;;;;;11.50;10.30;;;22.20;99.90;;;;;;5043847;28;20541;-74
2022/07/25 01:39:30;;;;;;;13.20;9.00;;;22.20;99.90;;;;;;5048753;28;20446;-74
2022/07/25 01:41:58;;;;;;;9.90;8.90;;;22.20;99.90;;;;;;5046975;28;20551;-72
2022/07/25 01:44:25;;;;;;;11.23;9.70;;;22.10;99.90;;;;;;5056510;28;20504;-73
2022/07/25 01:46:52;;;;;;;11.80;9.13;;;22.00;99.90;;;;;;5056984;28;20460;-74
2022/07/25 01:49:19;;;;;;;10.30;9.20;;;22.00;99.90;;;;;;5056098;28;20451;-73
2022/07/25 01:51:46;;;;;;;11.80;9.47;;;22.00;99.90;;;;;;5064016;28;20481;-72
2022/07/25 01:54:13;;;;;;;13.20;9.93;;;22.00;99.90;;;;;;5058332;28;20466;-72
2022/07/25 01:56:45;;;;;;;12.97;9.77;;;22.00;99.90;;;;;;5048148;28;20485;-73
2022/07/25 01:59:12;;;;;;;10.90;9.90;;;22.00;99.90;;;;;;5046845;28;20451;-73
2022/07/25 02:01:39;;;;;;;12.00;10.13;;;22.00;99.90;;;;;;5052006;28;20540;-73
2022/07/25 02:04:06;;;;;;;11.23;10.17;;;21.90;99.90;;;;;;5047129;28;20534;-72
2022/07/25 02:06:34;;;;;;;10.97;9.83;;;21.90;99.90;;;;;;5044459;28;20528;-73
2022/07/25 02:09:01;;;;;;;24.13;11.57;;;21.80;99.90;;;;;;5045201;28;20485;-74
2022/07/25 02:11:27;;;;;;;13.00;11.37;;;21.80;99.90;;;;;;5048178;28;20457;-73
2022/07/25 02:13:57;;;;;;;11.73;9.47;;;21.70;99.90;;;;;;5052303;28;20980;-72
2022/07/25 02:16:24;;;;;;;16.00;10.30;;;21.70;99.90;;;;;;5046490;28;20438;-75
2022/07/25 02:18:58;;;;;;;9.83;8.83;;;21.60;99.90;;;;;;5049399;28;20535;-73
2022/07/25 02:21:25;;;;;;;10.53;9.53;;;21.60;99.90;;;;;;5046234;28;20433;-74
2022/07/25 02:23:52;;;;;;;11.33;10.10;;;21.60;99.90;;;;;;5044461;28;20514;-74
2022/07/25 02:26:19;;;;;;;11.07;9.53;;;21.50;99.90;;;;;;5043677;28;20467;-74
2022/07/25 02:28:49;;;;;;;10.30;9.30;;;21.50;99.90;;;;;;5058718;28;20491;-73
2022/07/25 02:31:17;;;;;;;9.43;8.27;;;21.50;99.90;;;;;;5050271;28;20445;-74
2022/07/25 02:33:45;;;;;;;10.80;9.23;;;21.50;99.90;;;;;;5043670;28;20466;-73
2022/07/25 02:36:12;;;;;;;9.90;8.90;;;21.50;99.90;;;;;;5052226;28;20446;-75
2022/07/25 02:38:40;;;;;;;12.47;9.60;;;21.50;99.90;;;;;;5044881;28;21035;-74
2022/07/25 02:41:07;;;;;;;11.10;10.00;;;21.40;99.90;;;;;;5048970;28;20558;-74
2022/07/25 02:43:34;;;;;;;9.73;8.87;;;21.50;99.90;;;;;;5042743;28;20924;-74
2022/07/25 02:46:01;;;;;;;9.40;8.53;;;21.50;99.90;;;;;;5052564;28;20452;-73
2022/07/25 02:48:30;;;;;;;10.37;9.47;;;21.40;99.90;;;;;;5033750;28;20813;-73
2022/07/25 02:50:56;;;;;;;10.50;9.40;;;21.40;99.90;;;;;;5048954;28;20525;-73
2022/07/25 02:53:23;;;;;;;8.80;7.90;;;21.40;99.90;;;;;;5043214;28;20505;-75
2022/07/25 02:55:50;;;;;;;9.43;8.60;;;21.40;99.90;;;;;;5051292;28;20494;-72
2022/07/25 02:58:17;;;;;;;9.43;8.60;;;21.30;99.90;;;;;;5053280;28;20440;-74
2022/07/25 03:00:44;;;;;;;12.27;9.43;;;21.30;99.90;;;;;;5049705;28;20788;-74
2022/07/25 03:03:13;;;;;;;9.30;8.47;;;21.20;99.90;;;;;;5042547;28;21006;-76
2022/07/25 03:05:41;;;;;;;10.67;9.57;;;21.20;99.90;;;;;;5051091;28;20467;-74
2022/07/25 03:08:08;;;;;;;10.67;9.70;;;21.10;99.90;;;;;;5045141;28;20539;-75
2022/07/25 03:10:36;;;;;;;12.90;8.50;;;21.00;99.90;;;;;;5044229;28;20869;-75
2022/07/25 03:13:04;;;;;;;12.03;8.67;;;21.10;99.90;;;;;;5040458;28;20476;-74
2022/07/25 03:15:31;;;;;;;11.87;9.37;;;21.10;99.90;;;;;;5048837;28;21087;-74
2022/07/25 03:17:58;;;;;;;9.70;8.80;;;21.10;99.90;;;;;;5052329;28;20460;-74
2022/07/25 03:20:25;;;;;;;9.27;8.37;;;21.00;99.90;;;;;;5052319;28;20465;-74
2022/07/25 03:22:55;;;;;;;10.27;9.37;;;21.10;99.90;;;;;;5047553;28;20505;-75
2022/07/25 03:25:22;;;;;;;9.43;8.53;;;21.10;99.90;;;;;;5048788;28;20457;-75
2022/07/25 03:27:50;;;;;;;9.23;8.33;;;21.10;99.90;;;;;;5045451;28;20472;-75
2022/07/25 03:30:17;;;;;;;10.13;8.33;;;21.10;99.90;;;;;;5045667;28;20953;-75
2022/07/25 03:32:45;;;;;;;10.77;9.67;;;21.00;99.90;;;;;;5044663;28;20941;-73
2022/07/25 03:35:12;;;;;;;10.73;9.10;;;21.10;99.90;;;;;;5045942;28;20650;-75
2022/07/25 03:37:39;;;;;;;8.73;7.83;;;21.10;99.90;;;;;;5046996;28;20455;-73
2022/07/25 03:40:08;;;;;;;10.03;9.03;;;21.10;99.90;;;;;;5038980;28;20477;-73
2022/07/25 03:42:36;;;;;;;9.13;8.33;;;21.10;99.90;;;;;;5045090;28;20565;-74
2022/07/25 03:45:03;;;;;;;10.70;9.60;;;21.10;99.90;;;;;;5040632;28;20489;-74
2022/07/25 03:47:31;;;;;;;10.90;7.33;;;21.10;99.90;;;;;;5047131;28;22274;-74
2022/07/25 03:49:57;;;;;;;12.13;8.37;;;21.10;99.90;;;;;;5051846;28;20529;-74
2022/07/25 03:52:25;;;;;;;9.40;8.50;;;21.10;99.90;;;;;;5043721;28;20543;-75
2022/07/25 03:54:52;;;;;;;9.83;8.83;;;21.10;99.90;;;;;;5050087;28;20551;-75
2022/07/25 03:57:21;;;;;;;8.40;7.70;;;21.10;99.90;;;;;;5047576;28;20532;-74
2022/07/25 03:59:48;;;;;;;9.30;7.93;;;21.10;99.90;;;;;;5043220;28;20455;-73
2022/07/25 04:02:15;;;;;;;9.60;8.70;;;21.10;99.90;;;;;;5038870;28;20444;-73
2022/07/25 04:04:42;;;;;;;8.53;7.83;;;21.10;99.90;;;;;;5051188;28;20458;-75
2022/07/25 04:07:09;;;;;;;8.97;7.90;;;21.20;99.90;;;;;;5051241;28;20475;-74
2022/07/25 04:09:36;;;;;;;8.93;8.10;;;21.20;99.90;;;;;;5048642;28;20461;-73
2022/07/25 04:12:04;;;;;;;9.27;8.37;;;21.20;99.90;;;;;;5049165;28;20553;-73
2022/07/25 04:14:32;;;;;;;9.57;8.13;;;21.30;99.90;;;;;;5048170;28;20515;-73
2022/07/25 04:17:00;;;;;;;14.17;9.27;;;21.40;99.90;;;;;;5055019;28;20457;-74
2022/07/25 04:19:27;;;;;;;9.77;8.10;;;21.50;99.90;;;;;;5068978;28;20433;-75
2022/07/25 04:21:56;;;;;;;9.33;8.43;;;21.50;99.90;;;;;;5059070;28;20506;-74
2022/07/25 04:24:23;;;;;;;8.60;7.70;;;21.60;99.90;;;;;;5052072;28;20995;-74
2022/07/25 04:26:50;;;;;;;9.50;8.50;;;21.70;99.90;;;;;;5053641;28;20476;-75
2022/07/25 04:29:17;;;;;;;9.33;8.40;;;21.80;99.90;;;;;;5050436;28;20441;-74
2022/07/25 04:31:45;;;;;;;13.30;8.70;;;21.80;99.90;;;;;;5047072;28;20537;-73
2022/07/25 04:34:12;;;;;;;9.23;8.43;;;21.90;99.90;;;;;;5052823;28;20486;-75
2022/07/25 04:36:39;;;;;;;8.93;8.03;;;22.30;99.90;;;;;;5050176;28;20446;-74
2022/07/25 04:39:06;;;;;;;10.30;7.43;;;22.70;99.60;;;;;;5038467;28;20525;-73
2022/07/25 04:41:33;;;;;;;7.80;7.00;;;22.80;99.00;;;;;;5042559;28;20529;-75
2022/07/25 04:44:00;;;;;;;8.77;7.83;;;22.80;98.70;;;;;;5045315;28;20572;-74
2022/07/25 04:46:30;;;;;;;7.77;6.63;;;22.90;98.40;;;;;;5043483;28;20451;-75
2022/07/25 04:48:58;;;;;;;8.20;7.40;;;22.90;98.20;;;;;;5032764;28;21025;-74
2022/07/25 04:51:25;;;;;;;13.03;7.20;;;23.20;97.80;;;;;;5048453;28;20474;-75
2022/07/25 04:53:52;;;;;;;11.10;7.03;;;23.30;97.80;;;;;;5046039;28;21067;-74
2022/07/25 04:56:19;;;;;;;8.90;7.10;;;23.40;97.10;;;;;;5040794;28;20884;-75
2022/07/25 04:58:46;;;;;;;8.73;7.03;;;23.60;96.90;;;;;;5055202;28;20941;-74
2022/07/25 05:01:13;;;;;;;8.43;7.50;;;23.90;96.30;;;;;;5052607;28;20524;-73
2022/07/25 05:03:40;;;;;;;8.63;7.00;;;24.10;95.50;;;;;;5035538;28;20987;-74
2022/07/25 05:06:08;;;;;;;7.57;6.70;;;24.50;95.10;;;;;;5048994;28;20458;-74
2022/07/25 05:08:35;;;;;;;10.33;8.20;;;25.00;94.20;;;;;;5052673;28;20497;-74
2022/07/25 05:11:02;;;;;;;15.70;6.77;;;25.20;93.10;;;;;;5039652;28;20520;-74
2022/07/25 05:13:29;;;;;;;9.13;5.80;;;25.50;93.20;;;;;;5047453;28;20463;-75
2022/07/25 05:15:56;;;;;;;8.57;7.23;;;26.00;92.30;;;;;;5040699;28;20464;-75
2022/07/25 05:18:23;;;;;;;7.77;6.27;;;26.50;91.40;;;;;;5051296;28;20449;-74
2022/07/25 05:20:50;;;;;;;7.40;6.70;;;27.00;90.50;;;;;;5050036;28;20540;-74
2022/07/25 05:23:18;;;;;;;10.53;6.80;;;27.60;89.40;;;;;;5049904;28;20564;-74
2022/07/25 05:25:48;;;;;;;7.77;6.60;;;28.10;87.10;;;;;;5052088;28;20477;-75
2022/07/25 05:28:15;;;;;;;8.90;6.43;;;28.80;85.30;;;;;;5052912;28;20445;-74
2022/07/25 05:30:42;;;;;;;9.13;6.90;;;28.90;83.50;;;;;;5052794;28;20462;-74
2022/07/25 05:33:09;;;;;;;9.60;7.43;;;28.90;83.10;;;;;;5052789;28;20462;-73
2022/07/25 05:35:36;;;;;;;6.80;5.70;;;28.90;83.00;;;;;;5038803;28;20488;-74
2022/07/25 05:38:03;;;;;;;7.43;5.90;;;29.10;82.10;;;;;;5049945;28;20442;-75
2022/07/25 05:40:31;;;;;;;8.00;7.20;;;29.00;81.60;;;;;;5039714;28;20522;-74
2022/07/25 05:42:58;;;;;;;9.07;6.27;;;28.70;82.00;;;;;;5048552;28;20505;-74
2022/07/25 05:45:31;;;;;;;8.27;7.20;;;28.20;83.80;;;;;;5047280;28;20447;-74
2022/07/25 05:47:58;;;;;;;12.43;6.70;;;28.60;83.20;;;;;;5045209;28;20450;-73
2022/07/25 05:50:26;;;;;;;6.37;5.77;;;29.10;81.90;;;;;;5048504;28;20496;-73
2022/07/25 05:52:52;;;;;;;9.13;6.57;;;29.20;81.10;;;;;;5051166;28;20543;-73
2022/07/25 05:55:20;;;;;;;8.17;6.77;;;29.80;79.90;;;;;;5048095;28;20476;-73
2022/07/25 05:57:49;;;;;;;7.43;6.67;;;30.80;78.20;;;;;;5049616;28;20466;-75
2022/07/25 06:00:16;;;;;;;7.10;6.40;;;31.50;75.30;;;;;;5045685;28;20961;-75
2022/07/25 06:02:43;;;;;;;9.30;5.27;;;31.10;75.50;;;;;;5050217;28;20889;-75
2022/07/25 06:05:10;;;;;;;7.20;5.87;;;31.30;74.70;;;;;;5047681;28;20525;-74
2022/07/25 06:07:37;;;;;;;6.37;5.83;;;32.10;73.60;;;;;;5046900;28;20488;-73
2022/07/25 06:10:05;;;;;;;6.30;5.70;;;32.30;72.20;;;;;;5050968;28;20933;-74
2022/07/25 06:12:32;;;;;;;8.50;6.40;;;32.90;70.50;;;;;;5051104;28;20489;-74
2022/07/25 06:15:01;;;;;;;7.07;6.13;;;32.50;70.00;;;;;;5053354;28;20449;-72
2022/07/25 06:17:28;;;;;;;7.50;6.80;;;32.60;70.30;;;;;;5054558;28;20454;-75
2022/07/25 06:19:55;;;;;;;6.57;5.97;;;32.00;70.20;;;;;;5052603;28;20466;-73
2022/07/25 06:22:22;;;;;;;6.53;5.90;;;31.40;71.90;;;;;;5049544;28;20538;-74
2022/07/25 06:24:49;;;;;;;6.97;6.27;;;31.30;72.30;;;;;;5042725;28;20529;-74
2022/07/25 06:27:16;;;;;;;6.50;5.77;;;30.90;73.50;;;;;;5042437;28;20534;-73
2022/07/25 06:29:43;;;;;;;6.67;6.07;;;30.70;74.00;;;;;;5051280;28;20519;-73
2022/07/25 06:32:12;;;;;;;8.47;6.77;;;31.30;73.50;;;;;;5046746;28;20454;-74
2022/07/25 06:34:39;;;;;;;6.33;5.73;;;32.30;71.80;;;;;;5054448;28;20586;-74
2022/07/25 06:37:06;;;;;;;11.30;5.83;;;33.10;69.80;;;;;;5044182;28;20465;-74
2022/07/25 06:39:32;;;;;;;6.30;5.63;;;34.50;67.40;;;;;;5053930;28;20450;-75
2022/07/25 06:42:02;;;;;;;6.63;5.67;;;34.60;65.20;;;;;;5055699;28;20514;-75
2022/07/25 06:44:32;;;;;;;7.00;6.27;;;34.80;64.70;;;;;;5063037;28;20482;-74
2022/07/25 06:46:59;;;;;;;6.10;5.60;;;35.10;64.30;;;;;;5065276;28;20443;-74
2022/07/25 06:49:28;;;;;;;6.50;5.90;;;36.20;61.60;;;;;;5061756;28;20442;-73
2022/07/25 06:51:55;;;;;;;6.67;5.97;;;36.20;59.10;;;;;;5047095;28;20806;-75
2022/07/25 06:54:22;;;;;;;14.13;6.97;;;36.50;59.20;;;;;;5055784;28;20472;-75
2022/07/25 06:56:49;;;;;;;7.87;6.73;;;35.90;58.70;;;;;;5049512;28;20785;-72
2022/07/25 06:59:15;;;;;;;6.37;5.77;;;35.10;59.40;;;;;;5046301;28;20530;-74
2022/07/25 07:01:42;;;;;;;7.67;6.27;;;35.10;59.80;;;;;;5048635;28;20874;-74
2022/07/25 07:04:09;;;;;;;7.07;6.47;;;35.90;59.50;;;;;;5047290;28;20522;-73
2022/07/25 07:06:38;;;;;;;9.03;6.73;;;36.80;58.20;;;;;;5047517;28;20442;-75
2022/07/25 07:09:05;;;;;;;6.40;5.87;;;36.70;57.10;;;;;;5054461;28;20458;-74
2022/07/25 07:11:33;;;;;;;7.27;6.57;;;37.30;56.80;;;;;;5051085;28;20891;-75
2022/07/25 07:14:02;;;;;;;6.63;6.03;;;37.30;55.30;;;;;;5046010;28;20885;-74
2022/07/25 07:16:30;;;;;;;7.80;7.00;;;37.40;54.90;;;;;;5051287;28;20553;-74
2022/07/25 07:18:58;;;;;;;9.60;7.00;;;37.70;54.00;;;;;;5043682;28;20454;-73
2022/07/25 07:21:25;;;;;;;6.60;6.00;;;37.50;53.90;;;;;;5047302;28;20451;-74
2022/07/25 07:23:53;;;;;;;7.60;6.17;;;37.70;53.30;;;;;;5045958;28;20852;-74
2022/07/25 07:26:21;;;;;;;9.87;7.07;;;37.60;52.80;;;;;;5046731;28;20451;-73
2022/07/25 07:28:48;;;;;;;7.60;7.00;;;36.70;53.40;;;;;;5049574;28;20480;-74
2022/07/25 07:31:16;;;;;;;6.70;6.00;;;36.60;54.30;;;;;;5042289;28;20461;-74
2022/07/25 07:33:43;;;;;;;7.40;6.60;;;36.40;54.30;;;;;;5044328;28;20486;-74
2022/07/25 07:36:10;;;;;;;8.63;6.40;;;35.60;55.70;;;;;;5054033;28;20450;-76
2022/07/25 07:38:38;;;;;;;7.17;6.47;;;35.30;56.40;;;;;;5047614;28;20455;-74
2022/07/25 07:41:07;;;;;;;6.70;5.83;;;34.90;56.70;;;;;;5050362;28;20529;-74
2022/07/25 07:43:34;;;;;;;8.90;6.67;;;34.90;57.50;;;;;;5044942;28;20588;-74
2022/07/25 07:46:01;;;;;;;6.40;5.70;;;34.90;57.50;;;;;;5045135;28;20530;-74
2022/07/25 07:48:29;;;;;;;7.87;7.07;;;34.50;57.80;;;;;;5046913;28;20800;-74
2022/07/25 07:50:56;;;;;;;7.37;6.67;;;33.80;58.20;;;;;;5045669;28;20471;-74
2022/07/25 07:55:42;;;;;;;6.87;6.17;;;33.50;59.70;;;;;;5037404;28;20478;-75
2022/07/25 07:56:11;;;;;;;7.83;6.87;;;33.00;60.40;;;;;;5048459;28;20435;-72
2022/07/25 07:58:37;;;;;;;7.60;6.57;;;32.40;62.30;;;;;;5046141;28;20473;-73
2022/07/25 08:01:05;;;;;;;6.70;5.43;;;32.50;62.50;;;;;;5038451;28;20517;-74
2022/07/25 08:03:32;;;;;;;7.10;6.40;;;33.10;62.30;;;;;;5044660;28;20474;-75
2022/07/25 08:06:00;;;;;;;6.53;5.90;;;34.20;60.10;;;;;;5047510;28;20458;-74
2022/07/25 08:08:27;;;;;;;7.83;7.13;;;35.60;59.00;;;;;;5044785;28;20443;-76
2022/07/25 08:10:54;;;;;;;6.60;6.00;;;36.10;56.80;;;;;;5040296;28;20539;-73
2022/07/25 08:13:24;;;;;;;10.47;6.50;;;37.10;56.00;;;;;;5047160;28;20471;-74
2022/07/25 08:15:54;;;;;;;8.60;6.80;;;36.70;55.40;;;;;;5046796;28;20536;-75
2022/07/25 08:18:21;;;;;;;7.27;6.77;;;37.60;54.30;;;;;;5049604;28;20937;-74
2022/07/25 08:20:50;;;;;;;8.63;6.27;;;37.30;52.80;;;;;;5047993;28;20492;-74
2022/07/25 08:23:18;;;;;;;7.57;6.80;;;37.80;52.90;;;;;;5052340;28;20964;-76
2022/07/25 08:25:46;;;;;;;6.93;6.33;;;37.70;52.20;;;;;;5047531;28;20534;-75
2022/07/25 08:28:14;;;;;;;8.20;6.23;;;37.70;52.50;;;;;;5040208;28;20451;-74
2022/07/25 08:30:43;;;;;;;7.17;6.50;;;37.80;52.40;;;;;;5043874;28;20821;-74
2022/07/25 08:33:12;;;;;;;8.60;7.20;;;38.60;52.40;;;;;;5042908;28;20462;-73
2022/07/25 08:35:40;;;;;;;7.73;6.90;;;39.50;51.10;;;;;;5037841;28;20918;-75
2022/07/25 08:38:10;;;;;;;6.93;6.33;;;40.00;49.50;;;;;;5042595;28;20464;-76
2022/07/25 08:40:37;;;;;;;9.43;6.10;;;39.80;49.80;;;;;;5044529;28;20455;-74
2022/07/25 08:43:04;;;;;;;9.07;6.23;;;39.60;49.10;;;;;;5040642;28;20528;-75
2022/07/25 08:45:33;;;;;;;8.93;7.50;;;39.20;49.50;;;;;;5042690;28;20994;-73
2022/07/25 08:48:02;;;;;;;7.37;6.77;;;39.50;50.80;;;;;;5045143;28;20976;-74
2022/07/25 08:50:29;;;;;;;9.40;8.50;;;39.70;49.10;;;;;;5047748;28;20601;-74
2022/07/25 08:52:57;;;;;;;6.90;6.30;;;39.20;48.80;;;;;;5042731;28;20480;-74
2022/07/25 08:55:24;;;;;;;7.10;6.40;;;38.20;49.50;;;;;;5040942;28;20500;-74
2022/07/25 08:57:53;;;;;;;8.00;7.20;;;37.10;50.70;;;;;;5043625;28;20492;-73
2022/07/25 09:00:23;;;;;;;7.40;6.70;;;36.90;51.80;;;;;;5044732;28;20809;-74
2022/07/25 09:02:55;;;;;;;7.07;6.37;;;36.40;52.60;;;;;;5041784;28;20493;-75
2022/07/25 09:05:25;;;;;;;7.50;6.80;;;35.70;53.70;;;;;;5044268;28;20924;-75
2022/07/25 09:07:53;;;;;;;7.37;6.77;;;35.70;54.20;;;;;;5045480;28;20481;-74
2022/07/25 09:10:22;;;;;;;7.60;6.90;;;35.40;54.50;;;;;;5044860;28;20512;-73
2022/07/25 09:12:53;;;;;;;7.60;6.80;;;35.80;54.80;;;;;;5043092;28;20559;-73
2022/07/25 09:15:25;;;;;;;7.50;6.90;;;35.90;54.10;;;;;;5046682;28;20462;-73
2022/07/25 09:17:53;;;;;;;7.27;6.43;;;35.90;54.30;;;;;;5061577;28;20443;-72
2022/07/25 09:20:25;;;;;;;7.00;6.23;;;35.30;54.30;;;;;;5039001;28;20506;-72
2022/07/25 09:22:52;;;;;;;8.87;8.07;;;35.10;55.20;;;;;;5052838;28;20983;-75
2022/07/25 09:25:26;;;;;;;7.80;7.20;;;34.80;55.20;;;;;;5043258;28;20470;-74
2022/07/25 09:27:53;;;;;;;7.83;6.87;;;34.60;55.80;;;;;;5037469;28;20509;-73
2022/07/25 09:30:20;;;;;;;7.73;7.03;;;34.50;55.80;;;;;;5045486;28;20469;-72
2022/07/25 09:32:48;;;;;;;7.30;6.70;;;34.70;55.70;;;;;;5047230;28;20446;-74
2022/07/25 09:35:15;;;;;;;7.33;6.57;;;34.80;55.80;;;;;;5055338;28;20949;-74
2022/07/25 09:37:43;;;;;;;7.93;7.13;;;34.90;55.70;;;;;;5049689;28;20488;-75
2022/07/25 09:40:15;;;;;;;9.37;7.10;;;34.60;55.70;;;;;;5053439;28;20533;-75
2022/07/25 09:42:45;;;;;;;7.70;7.00;;;34.50;56.70;;;;;;5047518;28;20469;-73
2022/07/25 09:45:14;;;;;;;9.47;6.97;;;34.70;56.70;;;;;;5050942;28;20535;-73
2022/07/25 09:47:52;;;;;;;6.93;6.30;;;34.90;56.60;;;;;;5045661;28;20448;-73
2022/07/25 09:50:21;;;;;;;9.73;6.60;;;34.60;56.80;;;;;;5040485;28;20482;-72
2022/07/25 09:52:51;;;;;;;6.90;6.20;;;34.60;56.80;;;;;;5037715;28;20447;-73
2022/07/25 09:55:19;;;;;;;7.00;6.50;;;34.80;56.00;;;;;;5049972;28;20871;-73
2022/07/25 09:57:47;;;;;;;7.43;6.33;;;35.00;55.30;;;;;;5044219;28;20533;-75
2022/07/25 10:00:18;;;;;;;8.20;6.47;;;34.90;55.70;;;;;;5046404;28;20540;-74
2022/07/25 10:02:52;;;;;;;8.93;6.53;;;34.70;55.10;;;;;;5049041;28;20982;-74
2022/07/25 10:05:31;;;;;;;6.77;6.17;;;34.90;55.70;;;;;;5044337;28;21088;-74
2022/07/25 10:08:00;;;;;;;9.90;7.80;;;35.00;55.20;;;;;;5040762;28;20498;-73
2022/07/25 10:10:29;;;;;;;6.87;6.00;;;34.90;55.30;;;;;;5051914;28;20481;-74
2022/07/25 10:13:05;;;;;;;7.50;5.77;;;34.90;55.30;;;;;;5051732;28;20517;-73
2022/07/25 10:15:47;;;;;;;6.20;5.60;;;35.60;54.80;;;;;;5044573;28;20520;-75
2022/07/25 10:18:16;;;;;;;8.07;6.60;;;36.00;54.50;;;;;;5050920;28;20533;-74
2022/07/25 10:20:43;;;;;;;7.00;6.40;;;36.40;53.10;;;;;;5045123;28;20546;-75
2022/07/25 10:23:25;;;;;;;7.37;6.73;;;36.80;52.90;;;;;;5045016;28;20498;-75
2022/07/25 10:26:08;;;;;;;9.47;5.90;;;36.50;52.60;;;;;;5046193;28;20586;-74
2022/07/25 10:28:38;;;;;;;6.33;5.83;;;36.80;53.30;;;;;;5037474;28;20459;-74
2022/07/25 10:31:21;;;;;;;7.03;5.80;;;37.00;52.20;;;;;;5037177;28;20825;-75
2022/07/25 10:33:56;;;;;;;7.17;6.57;;;36.90;51.80;;;;;;5041883;28;20476;-76
2022/07/25 10:36:24;;;;;;;6.10;5.50;;;37.10;52.00;;;;;;5041224;28;20529;-74
2022/07/25 10:38:56;;;;;;;7.00;6.30;;;36.50;52.30;;;;;;5044715;28;20972;-75
2022/07/25 10:41:25;;;;;;;7.00;6.30;;;35.90;53.60;;;;;;5046956;28;20478;-73
2022/07/25 10:43:57;;;;;;;6.67;6.07;;;35.30;54.30;;;;;;5042158;28;20478;-74
2022/07/25 10:46:29;;;;;;;7.83;7.03;;;35.10;55.20;;;;;;5047471;28;20479;-76
2022/07/25 10:49:06;;;;;;;7.03;6.43;;;34.50;56.10;;;;;;5046285;28;20454;-74
2022/07/25 10:51:35;;;;;;;7.30;6.70;;;33.70;57.10;;;;;;5036117;28;20470;-75
2022/07/25 10:54:14;;;;;;;6.40;5.90;;;33.60;57.90;;;;;;5041412;28;20490;-74
2022/07/25 10:56:52;;;;;;;6.87;6.20;;;33.40;58.20;;;;;;5046530;28;20446;-74
2022/07/25 10:59:27;;;;;;;7.87;7.07;;;33.70;58.80;;;;;;5043210;28;20457;-75
2022/07/25 11:01:55;;;;;;;7.10;6.50;;;33.80;58.50;;;;;;5041583;28;20525;-74
2022/07/25 11:04:22;;;;;;;6.80;6.03;;;34.00;58.50;;;;;;5043469;28;20470;-75
2022/07/25 11:06:49;;;;;;;7.30;6.60;;;34.10;58.40;;;;;;5046323;28;21026;-75
2022/07/25 11:09:20;;;;;;;8.10;7.03;;;34.30;58.40;;;;;;5047034;28;20467;-74
2022/07/25 11:11:49;;;;;;;6.50;5.90;;;34.20;57.70;;;;;;5048742;28;20481;-76
2022/07/25 11:14:18;;;;;;;7.43;6.70;;;34.30;57.60;;;;;;5037319;28;20524;-75
2022/07/25 11:16:48;;;;;;;7.73;6.97;;;34.10;57.30;;;;;;5049480;28;21000;-74
2022/07/25 11:19:20;;;;;;;6.23;5.73;;;34.00;57.30;;;;;;5038797;28;20446;-74
2022/07/25 11:21:49;;;;;;;8.43;6.10;;;33.90;57.20;;;;;;5046415;28;20449;-76
2022/07/25 11:24:18;;;;;;;5.73;5.23;;;33.60;57.30;;;;;;5041138;28;20495;-75
2022/07/25 11:26:46;;;;;;;7.30;5.67;;;33.50;57.50;;;;;;5045528;28;20916;-74
2022/07/25 11:29:21;;;;;;;7.23;6.47;;;33.70;57.50;;;;;;5046734;28;20443;-75
2022/07/25 11:31:57;;;;;;;7.00;6.13;;;33.50;57.30;;;;;;5039176;28;20478;-74
2022/07/25 11:34:27;;;;;;;6.77;6.00;;;33.60;58.00;;;;;;5046976;28;20883;-74
2022/07/25 11:36:59;;;;;;;7.03;6.33;;;34.00;57.60;;;;;;5049225;28;20878;-76
2022/07/25 11:39:30;;;;;;;7.67;6.87;;;34.00;57.40;;;;;;5054167;28;20812;-74
2022/07/25 11:42:03;;;;;;;7.80;6.93;;;33.90;57.50;;;;;;5049741;28;20442;-76
2022/07/25 11:44:34;;;;;;;8.53;5.87;;;33.90;57.90;;;;;;5054148;28;20936;-73
2022/07/25 11:47:04;;;;;;;7.97;5.87;;;32.90;58.40;;;;;;5064653;28;20522;-73
2022/07/25 11:49:32;;;;;;;7.07;6.23;;;32.90;59.40;;;;;;5053191;28;21069;-73
2022/07/25 11:52:04;;;;;;;7.50;6.80;;;32.60;60.40;;;;;;5052218;28;20458;-75
2022/07/25 11:54:32;;;;;;;7.20;6.50;;;32.60;60.50;;;;;;5052665;28;20553;-74
2022/07/25 11:56:59;;;;;;;7.00;6.40;;;32.50;61.00;;;;;;5049874;28;20446;-74
2022/07/25 11:59:26;;;;;;;7.67;6.10;;;32.40;61.10;;;;;;5045589;28;20432;-75
2022/07/25 12:01:53;;;;;;;6.70;6.10;;;32.40;61.20;;;;;;5045334;28;20447;-74
2022/07/25 12:04:20;;;;;;;9.70;6.40;;;32.50;61.20;;;;;;5042067;28;20822;-73
2022/07/25 12:06:49;;;;;;;10.67;6.67;;;32.70;61.40;;;;;;5044014;28;20937;-74
2022/07/25 12:09:17;;;;;;;7.10;6.40;;;32.90;61.10;;;;;;5044089;28;20907;-74
2022/07/25 12:11:47;;;;;;;8.30;6.90;;;33.20;61.20;;;;;;5050042;28;20446;-73
2022/07/25 12:14:14;;;;;;;7.07;6.47;;;33.20;60.60;;;;;;5051107;28;20470;-74
2022/07/25 12:16:42;;;;;;;6.90;6.23;;;33.20;61.10;;;;;;5048528;28;20868;-72
2022/07/25 12:19:17;;;;;;;10.33;7.10;;;33.00;61.20;;;;;;5039397;28;20554;-73
2022/07/25 12:21:44;;;;;;;9.20;6.70;;;33.00;60.90;;;;;;5043565;28;20866;-73
2022/07/25 12:24:17;;;;;;;7.93;7.23;;;33.00;60.90;;;;;;5044790;28;20980;-73
2022/07/25 12:26:45;;;;;;;7.87;7.17;;;33.10;61.50;;;;;;5044483;28;20992;-74
2022/07/25 12:29:14;;;;;;;8.10;7.30;;;33.20;61.60;;;;;;5039834;28;20474;-74
2022/07/25 12:31:41;;;;;;;7.13;6.53;;;33.40;61.50;;;;;;5045290;28;20523;-75
2022/07/25 12:34:09;;;;;;;7.60;6.70;;;33.80;61.10;;;;;;5049176;28;20517;-75
2022/07/25 12:36:42;;;;;;;9.13;7.17;;;33.80;61.10;;;;;;5049010;28;20992;-75
2022/07/25 12:39:09;;;;;;;7.60;6.77;;;33.80;61.00;;;;;;5049865;28;20769;-72
2022/07/25 12:41:36;;;;;;;7.23;6.53;;;33.50;62.00;;;;;;5043221;28;20453;-75
2022/07/25 12:44:06;;;;;;;8.90;7.30;;;33.40;61.60;;;;;;5046347;28;20491;-73
2022/07/25 12:46:33;;;;;;;8.10;7.00;;;33.40;62.20;;;;;;5044640;28;20572;-75
2022/07/25 12:49:00;;;;;;;9.23;7.27;;;33.50;62.60;;;;;;5046758;28;20456;-73